sensor_id;sensor_type;location;lat;lon;timestamp;P1;durP1;ratioP1;P2;durP2;ratioP2
253;SDS011;590;48.772;8.846;2022-08-30T00:00:07;5.97;;;5.67;;
253;SDS011;590;48.772;8.846;2022-08-30T00:02:54;6.70;;;6.00;;
253;SDS011;590;48.772;8.846;2022-08-30T00:05:22;5.93;;;5.63;;
253;SDS011;590;48.772;8.846;2022-08-30T00:07:50;5.50;;;5.20;;
253;SDS011;590;48.772;8.846;2022-08-30T00:10:19;6.43;;;6.03;;
253;SDS011;590;48.772;8.846;2022-08-30T00:12:47;6.00;;;5.70;;
253;SDS011;590;48.772;8.846;2022-08-30T00:15:17;6.33;;;5.97;;
253;SDS011;590;48.772;8.846;2022-08-30T00:17:46;7.30;;;6.20;;
253;SDS011;590;48.772;8.846;2022-08-30T00:20:15;6.27;;;5.70;;
253;SDS011;590;48.772;8.846;2022-08-30T00:22:44;6.87;;;6.43;;
253;SDS011;590;48.772;8.846;2022-08-30T00:25:13;6.97;;;6.57;;
253;SDS011;590;48.772;8.846;2022-08-30T00:27:42;5.70;;;5.40;;
253;SDS011;590;48.772;8.846;2022-08-30T00:30:12;6.37;;;6.00;;
253;SDS011;590;48.772;8.846;2022-08-30T00:32:43;6.60;;;5.80;;
253;SDS011;590;48.772;8.846;2022-08-30T00:35:12;6.60;;;6.20;;
253;SDS011;590;48.772;8.846;2022-08-30T00:37:41;5.60;;;5.30;;
253;SDS011;590;48.772;8.846;2022-08-30T00:40:10;6.47;;;6.07;;
253;SDS011;590;48.772;8.846;2022-08-30T00:42:41;6.20;;;5.90;;
253;SDS011;590;48.772;8.846;2022-08-30T00:45:17;7.17;;;6.77;;
253;SDS011;590;48.772;8.846;2022-08-30T00:47:48;6.50;;;6.10;;
253;SDS011;590;48.772;8.846;2022-08-30T00:50:18;5.60;;;5.30;;
253;SDS011;590;48.772;8.846;2022-08-30T00:52:51;6.07;;;5.77;;
253;SDS011;590;48.772;8.846;2022-08-30T00:55:22;6.10;;;5.80;;
253;SDS011;590;48.772;8.846;2022-08-30T00:57:52;5.67;;;5.37;;
253;SDS011;590;48.772;8.846;2022-08-30T01:00:22;6.67;;;5.63;;
253;SDS011;590;48.772;8.846;2022-08-30T01:02:52;6.60;;;6.20;;
253;SDS011;590;48.772;8.846;2022-08-30T01:05:20;7.03;;;6.20;;
253;SDS011;590;48.772;8.846;2022-08-30T01:07:49;6.70;;;6.30;;
253;SDS011;590;48.772;8.846;2022-08-30T01:10:17;5.47;;;5.17;;
253;SDS011;590;48.772;8.846;2022-08-30T01:12:46;6.40;;;6.03;;
253;SDS011;590;48.772;8.846;2022-08-30T01:15:14;6.80;;;6.40;;
253;SDS011;590;48.772;8.846;2022-08-30T01:17:44;6.73;;;6.33;;
253;SDS011;590;48.772;8.846;2022-08-30T01:20:16;7.03;;;6.63;;
253;SDS011;590;48.772;8.846;2022-08-30T01:22:58;6.60;;;6.20;;
253;SDS011;590;48.772;8.846;2022-08-30T01:25:30;6.83;;;6.47;;
253;SDS011;590;48.772;8.846;2022-08-30T01:28:02;7.00;;;6.60;;
253;SDS011;590;48.772;8.846;2022-08-30T01:30:33;6.10;;;5.57;;
253;SDS011;590;48.772;8.846;2022-08-30T01:33:05;6.50;;;6.10;;
253;SDS011;590;48.772;8.846;2022-08-30T01:35:37;5.93;;;5.63;;
253;SDS011;590;48.772;8.846;2022-08-30T01:38:13;5.53;;;5.23;;
253;SDS011;590;48.772;8.846;2022-08-30T01:40:43;6.07;;;5.70;;
253;SDS011;590;48.772;8.846;2022-08-30T01:43:12;6.17;;;5.87;;
253;SDS011;590;48.772;8.846;2022-08-30T01:45:41;6.60;;;6.20;;
253;SDS011;590;48.772;8.846;2022-08-30T01:48:10;6.40;;;6.00;;
253;SDS011;590;48.772;8.846;2022-08-30T01:50:38;7.63;;;7.23;;
253;SDS011;590;48.772;8.846;2022-08-30T01:53:07;6.70;;;6.30;;
253;SDS011;590;48.772;8.846;2022-08-30T01:55:40;6.23;;;5.90;;
253;SDS011;590;48.772;8.846;2022-08-30T01:58:08;6.40;;;5.77;;
253;SDS011;590;48.772;8.846;2022-08-30T02:00:36;7.10;;;6.70;;
253;SDS011;590;48.772;8.846;2022-08-30T02:03:05;6.20;;;5.90;;
253;SDS011;590;48.772;8.846;2022-08-30T02:05:33;6.50;;;6.10;;
253;SDS011;590;48.772;8.846;2022-08-30T02:08:02;6.10;;;5.80;;
253;SDS011;590;48.772;8.846;2022-08-30T02:10:30;7.00;;;6.47;;
253;SDS011;590;48.772;8.846;2022-08-30T02:13:00;7.30;;;6.90;;
253;SDS011;590;48.772;8.846;2022-08-30T02:15:28;7.20;;;6.80;;
253;SDS011;590;48.772;8.846;2022-08-30T02:18:07;6.70;;;6.30;;
253;SDS011;590;48.772;8.846;2022-08-30T02:20:36;6.67;;;6.27;;
253;SDS011;590;48.772;8.846;2022-08-30T02:23:08;9.33;;;6.57;;
253;SDS011;590;48.772;8.846;2022-08-30T02:25:45;7.23;;;6.83;;
253;SDS011;590;48.772;8.846;2022-08-30T02:28:18;7.60;;;7.20;;
253;SDS011;590;48.772;8.846;2022-08-30T02:30:46;7.00;;;6.60;;
253;SDS011;590;48.772;8.846;2022-08-30T02:33:14;5.93;;;5.63;;
253;SDS011;590;48.772;8.846;2022-08-30T02:35:42;6.67;;;6.27;;
253;SDS011;590;48.772;8.846;2022-08-30T02:38:10;7.33;;;6.93;;
253;SDS011;590;48.772;8.846;2022-08-30T02:40:39;6.23;;;5.90;;
253;SDS011;590;48.772;8.846;2022-08-30T02:43:07;6.67;;;6.27;;
253;SDS011;590;48.772;8.846;2022-08-30T02:45:36;6.40;;;6.00;;
253;SDS011;590;48.772;8.846;2022-08-30T02:48:04;6.63;;;6.23;;
253;SDS011;590;48.772;8.846;2022-08-30T02:50:32;7.80;;;7.40;;
253;SDS011;590;48.772;8.846;2022-08-30T02:53:00;6.77;;;6.37;;
253;SDS011;590;48.772;8.846;2022-08-30T02:55:28;7.70;;;7.30;;
253;SDS011;590;48.772;8.846;2022-08-30T02:57:56;7.17;;;6.77;;
253;SDS011;590;48.772;8.846;2022-08-30T03:00:24;7.80;;;7.40;;
253;SDS011;590;48.772;8.846;2022-08-30T03:02:53;7.80;;;7.40;;
253;SDS011;590;48.772;8.846;2022-08-30T03:05:21;7.87;;;7.40;;
253;SDS011;590;48.772;8.846;2022-08-30T03:07:49;6.83;;;6.43;;
253;SDS011;590;48.772;8.846;2022-08-30T03:10:17;6.10;;;5.83;;
253;SDS011;590;48.772;8.846;2022-08-30T03:12:45;7.20;;;6.80;;
253;SDS011;590;48.772;8.846;2022-08-30T03:15:14;7.10;;;6.70;;
253;SDS011;590;48.772;8.846;2022-08-30T03:17:42;6.93;;;6.53;;
253;SDS011;590;48.772;8.846;2022-08-30T03:20:12;6.87;;;6.47;;
253;SDS011;590;48.772;8.846;2022-08-30T03:22:40;7.17;;;6.77;;
253;SDS011;590;48.772;8.846;2022-08-30T03:25:08;7.00;;;6.60;;
253;SDS011;590;48.772;8.846;2022-08-30T03:27:36;7.10;;;6.70;;
253;SDS011;590;48.772;8.846;2022-08-30T03:30:04;6.83;;;6.43;;
253;SDS011;590;48.772;8.846;2022-08-30T03:32:34;7.00;;;6.60;;
253;SDS011;590;48.772;8.846;2022-08-30T03:35:02;7.30;;;6.90;;
253;SDS011;590;48.772;8.846;2022-08-30T03:37:32;7.27;;;6.87;;
253;SDS011;590;48.772;8.846;2022-08-30T03:40:01;7.07;;;6.67;;
253;SDS011;590;48.772;8.846;2022-08-30T03:42:31;7.00;;;6.60;;
253;SDS011;590;48.772;8.846;2022-08-30T03:45:00;7.20;;;6.80;;
253;SDS011;590;48.772;8.846;2022-08-30T03:47:29;6.20;;;5.90;;
253;SDS011;590;48.772;8.846;2022-08-30T03:49:57;6.93;;;6.53;;
253;SDS011;590;48.772;8.846;2022-08-30T03:52:26;7.30;;;6.90;;
253;SDS011;590;48.772;8.846;2022-08-30T03:54:56;7.40;;;7.00;;
253;SDS011;590;48.772;8.846;2022-08-30T03:57:26;7.90;;;7.50;;
253;SDS011;590;48.772;8.846;2022-08-30T03:59:54;9.80;;;7.00;;
253;SDS011;590;48.772;8.846;2022-08-30T04:02:22;8.27;;;7.87;;
253;SDS011;590;48.772;8.846;2022-08-30T04:04:50;8.00;;;7.60;;
253;SDS011;590;48.772;8.846;2022-08-30T04:07:18;6.80;;;6.40;;
253;SDS011;590;48.772;8.846;2022-08-30T04:09:46;7.43;;;7.03;;
253;SDS011;590;48.772;8.846;2022-08-30T04:12:15;6.73;;;6.33;;
253;SDS011;590;48.772;8.846;2022-08-30T04:14:48;7.63;;;7.20;;
253;SDS011;590;48.772;8.846;2022-08-30T04:17:16;7.57;;;7.17;;
253;SDS011;590;48.772;8.846;2022-08-30T04:19:44;8.17;;;7.77;;
253;SDS011;590;48.772;8.846;2022-08-30T04:22:12;6.37;;;6.00;;
253;SDS011;590;48.772;8.846;2022-08-30T04:24:40;7.27;;;6.70;;
253;SDS011;590;48.772;8.846;2022-08-30T04:27:08;6.33;;;5.93;;
253;SDS011;590;48.772;8.846;2022-08-30T04:29:37;7.40;;;7.00;;
253;SDS011;590;48.772;8.846;2022-08-30T04:32:05;7.10;;;6.70;;
253;SDS011;590;48.772;8.846;2022-08-30T04:34:34;6.60;;;6.20;;
253;SDS011;590;48.772;8.846;2022-08-30T04:37:02;6.83;;;6.43;;
253;SDS011;590;48.772;8.846;2022-08-30T04:39:30;7.40;;;7.00;;
253;SDS011;590;48.772;8.846;2022-08-30T04:41:58;7.03;;;6.63;;
253;SDS011;590;48.772;8.846;2022-08-30T04:44:28;6.73;;;6.33;;
253;SDS011;590;48.772;8.846;2022-08-30T04:46:59;7.77;;;7.07;;
253;SDS011;590;48.772;8.846;2022-08-30T04:49:27;8.70;;;6.73;;
253;SDS011;590;48.772;8.846;2022-08-30T04:51:56;7.50;;;7.10;;
253;SDS011;590;48.772;8.846;2022-08-30T04:54:24;8.33;;;7.90;;
253;SDS011;590;48.772;8.846;2022-08-30T04:56:52;7.33;;;6.93;;
253;SDS011;590;48.772;8.846;2022-08-30T04:59:20;6.57;;;6.17;;
253;SDS011;590;48.772;8.846;2022-08-30T05:01:48;7.83;;;7.43;;
253;SDS011;590;48.772;8.846;2022-08-30T05:04:18;7.30;;;6.77;;
253;SDS011;590;48.772;8.846;2022-08-30T05:06:46;7.33;;;6.93;;
253;SDS011;590;48.772;8.846;2022-08-30T05:09:14;6.60;;;6.20;;
253;SDS011;590;48.772;8.846;2022-08-30T05:11:42;8.43;;;7.97;;
253;SDS011;590;48.772;8.846;2022-08-30T05:14:11;7.70;;;7.30;;
253;SDS011;590;48.772;8.846;2022-08-30T05:16:39;7.87;;;7.47;;
253;SDS011;590;48.772;8.846;2022-08-30T05:19:08;7.67;;;7.27;;
253;SDS011;590;48.772;8.846;2022-08-30T05:21:37;8.00;;;7.60;;
253;SDS011;590;48.772;8.846;2022-08-30T05:24:06;7.73;;;7.33;;
253;SDS011;590;48.772;8.846;2022-08-30T05:26:36;7.67;;;7.27;;
253;SDS011;590;48.772;8.846;2022-08-30T05:29:05;7.67;;;7.27;;
253;SDS011;590;48.772;8.846;2022-08-30T05:31:33;8.07;;;7.67;;
253;SDS011;590;48.772;8.846;2022-08-30T05:34:03;7.87;;;7.47;;
253;SDS011;590;48.772;8.846;2022-08-30T05:36:32;6.90;;;6.50;;
253;SDS011;590;48.772;8.846;2022-08-30T05:39:03;6.90;;;6.50;;
253;SDS011;590;48.772;8.846;2022-08-30T05:41:31;7.73;;;7.20;;
253;SDS011;590;48.772;8.846;2022-08-30T05:44:02;7.30;;;6.90;;
253;SDS011;590;48.772;8.846;2022-08-30T05:46:31;8.20;;;7.80;;
253;SDS011;590;48.772;8.846;2022-08-30T05:49:05;7.13;;;6.73;;
253;SDS011;590;48.772;8.846;2022-08-30T05:51:34;7.60;;;7.20;;
253;SDS011;590;48.772;8.846;2022-08-30T05:54:10;7.53;;;7.13;;
253;SDS011;590;48.772;8.846;2022-08-30T05:56:40;7.00;;;6.60;;
253;SDS011;590;48.772;8.846;2022-08-30T05:59:10;6.87;;;6.47;;
253;SDS011;590;48.772;8.846;2022-08-30T06:01:40;8.37;;;7.93;;
253;SDS011;590;48.772;8.846;2022-08-30T06:04:09;6.43;;;6.03;;
253;SDS011;590;48.772;8.846;2022-08-30T06:06:39;8.03;;;7.63;;
253;SDS011;590;48.772;8.846;2022-08-30T06:09:09;7.70;;;7.30;;
253;SDS011;590;48.772;8.846;2022-08-30T06:11:39;7.57;;;7.17;;
253;SDS011;590;48.772;8.846;2022-08-30T06:14:08;8.50;;;8.03;;
253;SDS011;590;48.772;8.846;2022-08-30T06:16:37;7.90;;;7.50;;
253;SDS011;590;48.772;8.846;2022-08-30T06:19:06;9.03;;;8.53;;
253;SDS011;590;48.772;8.846;2022-08-30T06:21:36;8.20;;;7.80;;
253;SDS011;590;48.772;8.846;2022-08-30T06:24:06;8.53;;;8.03;;
253;SDS011;590;48.772;8.846;2022-08-30T06:26:37;8.77;;;8.20;;
253;SDS011;590;48.772;8.846;2022-08-30T06:29:07;8.23;;;7.83;;
253;SDS011;590;48.772;8.846;2022-08-30T06:31:36;7.43;;;7.03;;
253;SDS011;590;48.772;8.846;2022-08-30T06:34:05;7.60;;;7.23;;
253;SDS011;590;48.772;8.846;2022-08-30T06:36:33;7.93;;;7.57;;
253;SDS011;590;48.772;8.846;2022-08-30T06:39:02;7.27;;;6.87;;
253;SDS011;590;48.772;8.846;2022-08-30T06:41:32;8.70;;;8.20;;
253;SDS011;590;48.772;8.846;2022-08-30T06:44:03;8.03;;;7.43;;
253;SDS011;590;48.772;8.846;2022-08-30T06:46:33;8.90;;;8.40;;
253;SDS011;590;48.772;8.846;2022-08-30T06:49:03;7.70;;;7.30;;
253;SDS011;590;48.772;8.846;2022-08-30T06:51:34;8.20;;;7.33;;
253;SDS011;590;48.772;8.846;2022-08-30T06:54:05;9.27;;;8.77;;
253;SDS011;590;48.772;8.846;2022-08-30T06:56:36;7.83;;;7.40;;
253;SDS011;590;48.772;8.846;2022-08-30T06:59:09;8.50;;;8.00;;
253;SDS011;590;48.772;8.846;2022-08-30T07:01:37;11.93;;;7.60;;
253;SDS011;590;48.772;8.846;2022-08-30T07:04:05;7.83;;;7.43;;
253;SDS011;590;48.772;8.846;2022-08-30T07:06:33;7.60;;;6.83;;
253;SDS011;590;48.772;8.846;2022-08-30T07:09:02;6.67;;;6.27;;
253;SDS011;590;48.772;8.846;2022-08-30T07:11:31;8.10;;;7.70;;
253;SDS011;590;48.772;8.846;2022-08-30T07:14:01;7.13;;;6.73;;
253;SDS011;590;48.772;8.846;2022-08-30T07:16:31;8.43;;;6.37;;
253;SDS011;590;48.772;8.846;2022-08-30T07:19:00;6.80;;;6.40;;
253;SDS011;590;48.772;8.846;2022-08-30T07:21:30;6.90;;;6.50;;
253;SDS011;590;48.772;8.846;2022-08-30T07:23:59;6.60;;;6.20;;
253;SDS011;590;48.772;8.846;2022-08-30T07:26:34;6.43;;;6.03;;
253;SDS011;590;48.772;8.846;2022-08-30T07:29:07;6.40;;;6.00;;
253;SDS011;590;48.772;8.846;2022-08-30T07:31:37;7.63;;;7.10;;
253;SDS011;590;48.772;8.846;2022-08-30T07:34:08;8.73;;;7.37;;
253;SDS011;590;48.772;8.846;2022-08-30T07:36:36;7.20;;;6.80;;
253;SDS011;590;48.772;8.846;2022-08-30T07:39:05;8.80;;;6.70;;
253;SDS011;590;48.772;8.846;2022-08-30T07:41:35;7.67;;;7.27;;
253;SDS011;590;48.772;8.846;2022-08-30T07:44:06;7.13;;;6.73;;
253;SDS011;590;48.772;8.846;2022-08-30T07:46:34;6.33;;;5.97;;
253;SDS011;590;48.772;8.846;2022-08-30T07:49:06;7.23;;;6.83;;
253;SDS011;590;48.772;8.846;2022-08-30T07:51:36;7.00;;;6.60;;
253;SDS011;590;48.772;8.846;2022-08-30T07:54:05;6.13;;;5.80;;
253;SDS011;590;48.772;8.846;2022-08-30T07:56:33;5.90;;;5.60;;
253;SDS011;590;48.772;8.846;2022-08-30T07:59:01;6.50;;;6.10;;
253;SDS011;590;48.772;8.846;2022-08-30T08:01:29;6.40;;;6.00;;
253;SDS011;590;48.772;8.846;2022-08-30T08:03:58;6.87;;;6.47;;
253;SDS011;590;48.772;8.846;2022-08-30T08:06:27;6.93;;;6.53;;
253;SDS011;590;48.772;8.846;2022-08-30T08:09:00;7.20;;;6.80;;
253;SDS011;590;48.772;8.846;2022-08-30T08:11:28;7.47;;;6.77;;
253;SDS011;590;48.772;8.846;2022-08-30T08:13:59;6.87;;;6.47;;
253;SDS011;590;48.772;8.846;2022-08-30T08:16:30;6.93;;;6.53;;
253;SDS011;590;48.772;8.846;2022-08-30T08:18:59;5.87;;;5.57;;
253;SDS011;590;48.772;8.846;2022-08-30T08:21:29;6.27;;;5.93;;
253;SDS011;590;48.772;8.846;2022-08-30T08:23:57;6.87;;;6.47;;
253;SDS011;590;48.772;8.846;2022-08-30T08:26:25;6.90;;;6.50;;
253;SDS011;590;48.772;8.846;2022-08-30T08:28:53;6.43;;;5.90;;
253;SDS011;590;48.772;8.846;2022-08-30T08:31:21;6.13;;;5.77;;
253;SDS011;590;48.772;8.846;2022-08-30T08:33:56;7.93;;;6.47;;
253;SDS011;590;48.772;8.846;2022-08-30T08:36:26;5.93;;;5.63;;
253;SDS011;590;48.772;8.846;2022-08-30T08:38:56;5.10;;;4.80;;
253;SDS011;590;48.772;8.846;2022-08-30T08:41:28;5.87;;;5.60;;
253;SDS011;590;48.772;8.846;2022-08-30T08:44:03;6.40;;;6.00;;
253;SDS011;590;48.772;8.846;2022-08-30T08:46:39;9.57;;;7.57;;
253;SDS011;590;48.772;8.846;2022-08-30T08:49:14;6.77;;;5.87;;
253;SDS011;590;48.772;8.846;2022-08-30T08:51:42;5.70;;;5.40;;
253;SDS011;590;48.772;8.846;2022-08-30T08:54:31;5.60;;;5.30;;
253;SDS011;590;48.772;8.846;2022-08-30T08:57:02;6.03;;;5.73;;
253;SDS011;590;48.772;8.846;2022-08-30T08:59:31;5.67;;;5.37;;
253;SDS011;590;48.772;8.846;2022-08-30T09:02:01;5.53;;;5.23;;
253;SDS011;590;48.772;8.846;2022-08-30T09:04:45;6.43;;;5.70;;
253;SDS011;590;48.772;8.846;2022-08-30T09:07:16;5.70;;;5.40;;
253;SDS011;590;48.772;8.846;2022-08-30T09:09:48;6.23;;;5.90;;
253;SDS011;590;48.772;8.846;2022-08-30T09:12:17;6.37;;;6.00;;
253;SDS011;590;48.772;8.846;2022-08-30T09:15:00;5.53;;;5.23;;
253;SDS011;590;48.772;8.846;2022-08-30T09:17:36;5.43;;;5.17;;
253;SDS011;590;48.772;8.846;2022-08-30T09:20:24;5.40;;;5.10;;
253;SDS011;590;48.772;8.846;2022-08-30T09:22:55;6.10;;;5.80;;
253;SDS011;590;48.772;8.846;2022-08-30T09:25:25;7.70;;;6.60;;
253;SDS011;590;48.772;8.846;2022-08-30T09:28:08;5.47;;;5.17;;
253;SDS011;590;48.772;8.846;2022-08-30T09:30:38;6.20;;;5.90;;
253;SDS011;590;48.772;8.846;2022-08-30T09:33:17;6.20;;;5.90;;
253;SDS011;590;48.772;8.846;2022-08-30T09:35:48;6.70;;;6.30;;
253;SDS011;590;48.772;8.846;2022-08-30T09:38:20;6.00;;;5.70;;
253;SDS011;590;48.772;8.846;2022-08-30T09:40:52;6.90;;;5.70;;
253;SDS011;590;48.772;8.846;2022-08-30T09:43:22;6.53;;;6.13;;
253;SDS011;590;48.772;8.846;2022-08-30T09:46:07;6.40;;;6.00;;
253;SDS011;590;48.772;8.846;2022-08-30T09:48:42;6.20;;;5.90;;
253;SDS011;590;48.772;8.846;2022-08-30T09:51:14;6.57;;;6.17;;
253;SDS011;590;48.772;8.846;2022-08-30T09:53:57;6.77;;;6.37;;
253;SDS011;590;48.772;8.846;2022-08-30T09:56:46;8.30;;;7.53;;
253;SDS011;590;48.772;8.846;2022-08-30T09:59:31;7.13;;;6.73;;
253;SDS011;590;48.772;8.846;2022-08-30T10:02:11;6.43;;;5.90;;
253;SDS011;590;48.772;8.846;2022-08-30T10:04:55;6.20;;;5.90;;
253;SDS011;590;48.772;8.846;2022-08-30T10:07:29;5.80;;;5.50;;
253;SDS011;590;48.772;8.846;2022-08-30T10:10:02;8.33;;;6.43;;
253;SDS011;590;48.772;8.846;2022-08-30T10:12:39;5.97;;;5.67;;
253;SDS011;590;48.772;8.846;2022-08-30T10:15:15;7.60;;;7.03;;
253;SDS011;590;48.772;8.846;2022-08-30T10:17:52;6.17;;;5.87;;
253;SDS011;590;48.772;8.846;2022-08-30T10:20:25;6.50;;;6.10;;
253;SDS011;590;48.772;8.846;2022-08-30T10:22:58;6.27;;;5.93;;
253;SDS011;590;48.772;8.846;2022-08-30T10:25:34;6.20;;;5.90;;
253;SDS011;590;48.772;8.846;2022-08-30T10:28:08;7.40;;;7.00;;
253;SDS011;590;48.772;8.846;2022-08-30T10:30:41;6.20;;;5.90;;
253;SDS011;590;48.772;8.846;2022-08-30T10:33:16;6.73;;;6.33;;
253;SDS011;590;48.772;8.846;2022-08-30T10:35:52;6.50;;;6.10;;
253;SDS011;590;48.772;8.846;2022-08-30T10:38:23;6.70;;;6.30;;
253;SDS011;590;48.772;8.846;2022-08-30T10:40:56;7.20;;;6.80;;
253;SDS011;590;48.772;8.846;2022-08-30T10:43:46;6.60;;;6.20;;
253;SDS011;590;48.772;8.846;2022-08-30T10:46:21;5.90;;;5.60;;
253;SDS011;590;48.772;8.846;2022-08-30T10:48:56;7.17;;;6.77;;
253;SDS011;590;48.772;8.846;2022-08-30T10:51:29;6.00;;;5.70;;
253;SDS011;590;48.772;8.846;2022-08-30T10:54:03;5.17;;;4.87;;
253;SDS011;590;48.772;8.846;2022-08-30T10:56:41;6.10;;;5.80;;
253;SDS011;590;48.772;8.846;2022-08-30T10:59:12;6.07;;;5.77;;
253;SDS011;590;48.772;8.846;2022-08-30T11:01:48;5.60;;;5.30;;
253;SDS011;590;48.772;8.846;2022-08-30T11:04:45;6.53;;;6.13;;
253;SDS011;590;48.772;8.846;2022-08-30T11:07:45;5.03;;;4.73;;
253;SDS011;590;48.772;8.846;2022-08-30T11:13:16;5.73;;;5.43;;
253;SDS011;590;48.772;8.846;2022-08-30T11:15:52;6.27;;;5.93;;
253;SDS011;590;48.772;8.846;2022-08-30T11:18:26;5.87;;;5.57;;
253;SDS011;590;48.772;8.846;2022-08-30T11:23:56;5.63;;;5.10;;
253;SDS011;590;48.772;8.846;2022-08-30T11:26:49;6.13;;;5.83;;
253;SDS011;590;48.772;8.846;2022-08-30T11:29:31;6.57;;;6.17;;
253;SDS011;590;48.772;8.846;2022-08-30T11:32:20;6.00;;;5.70;;
253;SDS011;590;48.772;8.846;2022-08-30T11:35:05;5.97;;;5.67;;
253;SDS011;590;48.772;8.846;2022-08-30T11:37:38;5.93;;;5.63;;
253;SDS011;590;48.772;8.846;2022-08-30T11:40:12;5.63;;;5.33;;
253;SDS011;590;48.772;8.846;2022-08-30T11:46:19;6.20;;;5.83;;
253;SDS011;590;48.772;8.846;2022-08-30T11:49:04;5.07;;;4.80;;
253;SDS011;590;48.772;8.846;2022-08-30T11:52:00;5.73;;;5.43;;
253;SDS011;590;48.772;8.846;2022-08-30T11:54:57;5.80;;;5.50;;
253;SDS011;590;48.772;8.846;2022-08-30T11:57:44;6.10;;;5.70;;
253;SDS011;590;48.772;8.846;2022-08-30T12:00:26;6.53;;;6.13;;
253;SDS011;590;48.772;8.846;2022-08-30T12:03:00;5.80;;;5.50;;
253;SDS011;590;48.772;8.846;2022-08-30T12:05:52;5.23;;;4.93;;
253;SDS011;590;48.772;8.846;2022-08-30T12:14:33;5.50;;;5.20;;
253;SDS011;590;48.772;8.846;2022-08-30T12:17:10;5.80;;;5.50;;
253;SDS011;590;48.772;8.846;2022-08-30T12:20:00;5.50;;;4.87;;
253;SDS011;590;48.772;8.846;2022-08-30T12:22:32;5.40;;;5.10;;
253;SDS011;590;48.772;8.846;2022-08-30T12:25:05;4.97;;;4.67;;
253;SDS011;590;48.772;8.846;2022-08-30T12:27:43;5.60;;;5.30;;
253;SDS011;590;48.772;8.846;2022-08-30T12:30:12;6.17;;;5.87;;
253;SDS011;590;48.772;8.846;2022-08-30T12:32:43;5.90;;;5.60;;
253;SDS011;590;48.772;8.846;2022-08-30T12:35:17;5.73;;;5.43;;
253;SDS011;590;48.772;8.846;2022-08-30T12:37:57;6.20;;;5.90;;
253;SDS011;590;48.772;8.846;2022-08-30T12:40:27;6.00;;;5.70;;
253;SDS011;590;48.772;8.846;2022-08-30T12:42:57;6.50;;;6.10;;
253;SDS011;590;48.772;8.846;2022-08-30T12:45:28;5.67;;;5.37;;
253;SDS011;590;48.772;8.846;2022-08-30T12:48:02;6.60;;;6.20;;
253;SDS011;590;48.772;8.846;2022-08-30T12:50:33;5.97;;;5.43;;
253;SDS011;590;48.772;8.846;2022-08-30T12:53:05;5.97;;;5.67;;
253;SDS011;590;48.772;8.846;2022-08-30T12:55:48;5.57;;;5.27;;
253;SDS011;590;48.772;8.846;2022-08-30T12:58:31;6.00;;;5.70;;
253;SDS011;590;48.772;8.846;2022-08-30T13:01:13;6.93;;;6.53;;
253;SDS011;590;48.772;8.846;2022-08-30T13:03:58;5.40;;;5.10;;
253;SDS011;590;48.772;8.846;2022-08-30T13:06:41;7.90;;;6.40;;
253;SDS011;590;48.772;8.846;2022-08-30T13:09:22;5.80;;;5.50;;
253;SDS011;590;48.772;8.846;2022-08-30T13:11:58;6.17;;;5.87;;
253;SDS011;590;48.772;8.846;2022-08-30T13:14:28;6.07;;;5.77;;
253;SDS011;590;48.772;8.846;2022-08-30T13:17:11;5.80;;;5.50;;
253;SDS011;590;48.772;8.846;2022-08-30T13:19:56;6.40;;;6.00;;
253;SDS011;590;48.772;8.846;2022-08-30T13:22:28;5.90;;;5.60;;
253;SDS011;590;48.772;8.846;2022-08-30T13:24:58;5.43;;;5.13;;
253;SDS011;590;48.772;8.846;2022-08-30T13:27:27;5.83;;;5.53;;
253;SDS011;590;48.772;8.846;2022-08-30T13:29:56;5.50;;;5.20;;
253;SDS011;590;48.772;8.846;2022-08-30T13:32:39;6.27;;;5.93;;
253;SDS011;590;48.772;8.846;2022-08-30T13:35:07;5.40;;;5.10;;
253;SDS011;590;48.772;8.846;2022-08-30T13:37:36;5.73;;;5.43;;
253;SDS011;590;48.772;8.846;2022-08-30T13:40:18;6.50;;;6.10;;
253;SDS011;590;48.772;8.846;2022-08-30T13:42:47;6.40;;;6.00;;
253;SDS011;590;48.772;8.846;2022-08-30T13:45:17;6.73;;;6.33;;
253;SDS011;590;48.772;8.846;2022-08-30T13:48:06;6.00;;;5.70;;
253;SDS011;590;48.772;8.846;2022-08-30T13:50:37;6.07;;;5.77;;
253;SDS011;590;48.772;8.846;2022-08-30T13:53:05;6.00;;;5.70;;
253;SDS011;590;48.772;8.846;2022-08-30T13:55:36;5.97;;;5.67;;
253;SDS011;590;48.772;8.846;2022-08-30T13:58:06;6.10;;;5.80;;
253;SDS011;590;48.772;8.846;2022-08-30T14:00:38;6.47;;;6.07;;
253;SDS011;590;48.772;8.846;2022-08-30T14:03:06;5.80;;;5.50;;
253;SDS011;590;48.772;8.846;2022-08-30T14:05:36;6.60;;;6.20;;
253;SDS011;590;48.772;8.846;2022-08-30T14:08:19;6.00;;;5.70;;
253;SDS011;590;48.772;8.846;2022-08-30T14:11:11;6.80;;;6.00;;
253;SDS011;590;48.772;8.846;2022-08-30T14:13:43;6.07;;;5.77;;
253;SDS011;590;48.772;8.846;2022-08-30T14:16:32;6.00;;;5.60;;
253;SDS011;590;48.772;8.846;2022-08-30T14:19:02;5.67;;;5.37;;
253;SDS011;590;48.772;8.846;2022-08-30T14:21:31;6.47;;;6.07;;
253;SDS011;590;48.772;8.846;2022-08-30T14:23:59;6.33;;;5.97;;
253;SDS011;590;48.772;8.846;2022-08-30T14:26:32;6.90;;;6.50;;
253;SDS011;590;48.772;8.846;2022-08-30T14:29:03;5.97;;;5.47;;
253;SDS011;590;48.772;8.846;2022-08-30T14:31:34;6.13;;;5.83;;
253;SDS011;590;48.772;8.846;2022-08-30T14:34:03;5.67;;;5.37;;
253;SDS011;590;48.772;8.846;2022-08-30T14:36:32;6.47;;;6.07;;
253;SDS011;590;48.772;8.846;2022-08-30T14:39:02;6.47;;;6.07;;
253;SDS011;590;48.772;8.846;2022-08-30T14:41:39;8.30;;;6.07;;
253;SDS011;590;48.772;8.846;2022-08-30T14:44:09;6.20;;;5.90;;
253;SDS011;590;48.772;8.846;2022-08-30T14:46:39;6.00;;;5.70;;
253;SDS011;590;48.772;8.846;2022-08-30T14:49:08;7.00;;;6.60;;
253;SDS011;590;48.772;8.846;2022-08-30T14:51:37;5.90;;;5.60;;
253;SDS011;590;48.772;8.846;2022-08-30T14:54:05;6.10;;;5.80;;
253;SDS011;590;48.772;8.846;2022-08-30T14:56:36;5.30;;;5.10;;
253;SDS011;590;48.772;8.846;2022-08-30T14:59:04;6.10;;;5.80;;
253;SDS011;590;48.772;8.846;2022-08-30T15:01:34;6.03;;;5.73;;
253;SDS011;590;48.772;8.846;2022-08-30T15:04:02;6.00;;;5.70;;
253;SDS011;590;48.772;8.846;2022-08-30T15:06:33;6.50;;;6.10;;
253;SDS011;590;48.772;8.846;2022-08-30T15:09:02;6.27;;;5.93;;
253;SDS011;590;48.772;8.846;2022-08-30T15:11:31;6.97;;;5.90;;
253;SDS011;590;48.772;8.846;2022-08-30T15:14:01;6.03;;;5.73;;
253;SDS011;590;48.772;8.846;2022-08-30T15:16:30;5.90;;;5.60;;
253;SDS011;590;48.772;8.846;2022-08-30T15:19:01;6.80;;;6.40;;
253;SDS011;590;48.772;8.846;2022-08-30T15:21:31;6.07;;;5.77;;
253;SDS011;590;48.772;8.846;2022-08-30T15:24:02;5.87;;;5.57;;
253;SDS011;590;48.772;8.846;2022-08-30T15:26:32;6.20;;;5.87;;
253;SDS011;590;48.772;8.846;2022-08-30T15:29:02;6.60;;;6.23;;
253;SDS011;590;48.772;8.846;2022-08-30T15:31:30;6.27;;;5.93;;
253;SDS011;590;48.772;8.846;2022-08-30T15:34:00;5.80;;;5.50;;
253;SDS011;590;48.772;8.846;2022-08-30T15:36:28;5.70;;;5.40;;
253;SDS011;590;48.772;8.846;2022-08-30T15:38:56;6.57;;;6.17;;
253;SDS011;590;48.772;8.846;2022-08-30T15:41:25;6.00;;;5.70;;
253;SDS011;590;48.772;8.846;2022-08-30T15:43:55;5.60;;;5.30;;
253;SDS011;590;48.772;8.846;2022-08-30T15:46:27;5.83;;;5.53;;
253;SDS011;590;48.772;8.846;2022-08-30T15:48:58;4.87;;;4.57;;
253;SDS011;590;48.772;8.846;2022-08-30T15:51:27;6.07;;;5.77;;
253;SDS011;590;48.772;8.846;2022-08-30T15:54:08;5.90;;;5.60;;
253;SDS011;590;48.772;8.846;2022-08-30T15:56:37;6.40;;;6.03;;
253;SDS011;590;48.772;8.846;2022-08-30T15:59:07;6.40;;;6.03;;
253;SDS011;590;48.772;8.846;2022-08-30T16:01:37;5.63;;;5.30;;
253;SDS011;590;48.772;8.846;2022-08-30T16:04:05;5.83;;;5.53;;
253;SDS011;590;48.772;8.846;2022-08-30T16:06:34;5.20;;;4.90;;
253;SDS011;590;48.772;8.846;2022-08-30T16:09:04;6.23;;;5.90;;
253;SDS011;590;48.772;8.846;2022-08-30T16:11:33;5.90;;;5.60;;
253;SDS011;590;48.772;8.846;2022-08-30T16:14:02;5.77;;;5.47;;
253;SDS011;590;48.772;8.846;2022-08-30T16:16:33;6.43;;;6.03;;
253;SDS011;590;48.772;8.846;2022-08-30T16:19:04;6.33;;;5.97;;
253;SDS011;590;48.772;8.846;2022-08-30T16:21:32;6.50;;;6.10;;
253;SDS011;590;48.772;8.846;2022-08-30T16:24:03;7.30;;;6.00;;
253;SDS011;590;48.772;8.846;2022-08-30T16:26:33;6.40;;;6.00;;
253;SDS011;590;48.772;8.846;2022-08-30T16:29:02;7.13;;;5.67;;